createdAt,value
2019-03-22T00:00:56.581Z,64.47
2019-03-22T00:02:00.290Z,64.69
2019-03-22T00:03:04.029Z,65.29
2019-03-22T00:04:07.666Z,66.08
2019-03-22T00:05:11.304Z,66.20
2019-03-22T00:06:15.048Z,66.22
2019-03-22T00:07:18.686Z,65.97
2019-03-22T00:08:22.352Z,65.58
2019-03-22T00:09:25.943Z,65.77
2019-03-22T00:10:29.578Z,65.94
2019-03-22T00:11:33.236Z,65.54
2019-03-22T00:12:36.802Z,65.03
2019-03-22T00:13:40.434Z,63.89
2019-03-22T00:14:44.057Z,65.02
2019-03-22T00:15:47.699Z,65.02
2019-03-22T00:16:51.366Z,64.77
2019-03-22T00:17:55.001Z,64.53
2019-03-22T00:18:58.635Z,64.91
2019-03-22T00:20:02.735Z,65.00
2019-03-22T00:21:06.366Z,65.26
2019-03-22T00:22:10.400Z,65.11
2019-03-22T00:23:14.035Z,64.76
2019-03-22T00:24:17.677Z,64.57
2019-03-22T00:25:21.384Z,64.58
2019-03-22T00:26:24.953Z,64.70
2019-03-22T00:27:28.667Z,64.14
2019-03-22T00:28:32.378Z,64.77
2019-03-22T00:29:36.008Z,64.15
2019-03-22T00:30:39.639Z,64.57
2019-03-22T00:31:43.275Z,64.23
2019-03-22T00:32:46.952Z,64.34
2019-03-22T00:33:50.578Z,64.88
2019-03-22T00:34:54.607Z,64.77
2019-03-22T00:35:58.245Z,64.98
2019-03-22T00:37:01.891Z,64.95
2019-03-22T00:38:05.561Z,64.99
2019-03-22T00:39:09.327Z,64.81
2019-03-22T00:40:14.684Z,64.02
2019-03-22T00:41:18.315Z,64.80
2019-03-22T00:42:21.948Z,65.01
2019-03-22T00:43:25.539Z,65.07
2019-03-22T00:44:29.162Z,65.35
2019-03-22T00:45:32.867Z,65.94
2019-03-22T00:46:36.506Z,66.19
2019-03-22T00:47:40.208Z,66.82
2019-03-22T00:48:43.875Z,66.97
2019-03-22T00:49:47.519Z,66.55
2019-03-22T00:50:51.158Z,66.61
2019-03-22T00:51:54.792Z,66.81
2019-03-22T00:52:58.501Z,66.69
2019-03-22T00:54:02.181Z,66.51
2019-03-22T00:55:06.316Z,67.03
2019-03-22T00:56:09.955Z,67.16
2019-03-22T00:57:13.591Z,67.60
2019-03-22T00:58:17.227Z,67.90
2019-03-22T00:59:20.893Z,68.29
2019-03-22T01:00:24.532Z,66.97
2019-03-22T01:01:28.169Z,66.58
2019-03-22T01:02:31.825Z,66.35
2019-03-22T01:03:35.457Z,66.17
2019-03-22T01:04:39.124Z,66.04
2019-03-22T01:05:42.768Z,65.81
2019-03-22T01:06:46.404Z,65.14
2019-03-22T01:07:50.309Z,65.49
2019-03-22T01:08:53.879Z,66.01
2019-03-22T01:09:57.553Z,66.35
2019-03-22T01:11:01.189Z,66.47
2019-03-22T01:12:04.834Z,66.63
2019-03-22T01:13:08.464Z,66.30
2019-03-22T01:14:12.120Z,66.00
2019-03-22T01:15:16.300Z,66.15
2019-03-22T01:16:20.034Z,65.93
2019-03-22T01:17:23.744Z,65.82
2019-03-22T01:18:27.384Z,65.78
2019-03-22T01:19:31.466Z,65.56
2019-03-22T01:20:35.101Z,66.35
2019-03-22T01:21:38.777Z,66.40
2019-03-22T01:22:42.411Z,66.90
2019-03-22T01:23:46.044Z,66.85
2019-03-22T01:24:49.750Z,67.50
2019-03-22T01:25:53.395Z,67.74
2019-03-22T01:26:57.065Z,67.46
2019-03-22T01:28:00.694Z,67.13
2019-03-22T01:29:04.323Z,66.86
2019-03-22T01:30:18.539Z,66.76
2019-03-22T01:31:22.179Z,66.41
2019-03-22T01:32:25.852Z,66.05
2019-03-22T01:33:29.855Z,66.54
2019-03-22T01:34:33.482Z,67.65
2019-03-22T01:35:37.111Z,66.97
2019-03-22T01:36:40.747Z,67.42
2019-03-22T01:37:44.730Z,67.27
2019-03-22T01:38:48.358Z,67.29
2019-03-22T01:39:52.002Z,66.99
2019-03-22T01:40:55.630Z,67.05
2019-03-22T01:41:59.267Z,66.81
2019-03-22T01:43:02.936Z,66.86
2019-03-22T01:44:06.569Z,66.95
2019-03-22T01:45:14.608Z,66.47
2019-03-22T01:46:18.678Z,67.02
2019-03-22T01:47:22.310Z,67.59
2019-03-22T01:48:25.983Z,68.01
2019-03-22T01:49:29.609Z,68.04
2019-03-22T01:50:33.650Z,67.64
2019-03-22T01:51:37.294Z,67.35
2019-03-22T01:52:40.926Z,67.00
2019-03-22T01:53:44.593Z,66.78
2019-03-22T01:54:48.236Z,66.61
2019-03-22T01:55:51.800Z,66.24
2019-03-22T01:56:55.433Z,66.30
2019-03-22T01:57:59.071Z,67.30
2019-03-22T01:59:02.729Z,67.55
2019-03-22T02:00:17.906Z,67.77
2019-03-22T02:01:21.541Z,67.80
2019-03-22T02:02:25.179Z,68.42
2019-03-22T02:03:28.815Z,68.49
2019-03-22T02:04:32.789Z,68.36
2019-03-22T02:05:36.501Z,68.37
2019-03-22T02:06:40.141Z,68.26
2019-03-22T02:07:43.768Z,67.95
2019-03-22T02:08:47.399Z,68.10
2019-03-22T02:09:51.062Z,68.46
2019-03-22T02:10:54.782Z,69.05
2019-03-22T02:11:58.414Z,69.11
2019-03-22T02:13:02.057Z,69.42
2019-03-22T02:14:05.688Z,69.30
2019-03-22T02:15:16.300Z,69.06
2019-03-22T02:16:19.970Z,68.82
2019-03-22T02:17:24.004Z,68.68
2019-03-22T02:18:27.642Z,68.58
2019-03-22T02:19:31.281Z,68.11
2019-03-22T02:20:34.866Z,68.39
2019-03-22T02:21:38.502Z,68.88
2019-03-22T02:22:42.141Z,68.50
2019-03-22T02:23:45.704Z,68.40
2019-03-22T02:24:49.335Z,68.51
2019-03-22T02:25:53.005Z,68.37
2019-03-22T02:26:56.645Z,68.09
2019-03-22T02:28:04.471Z,67.99
2019-03-22T02:29:05.643Z,67.83
2019-03-22T02:30:12.151Z,67.95
2019-03-22T02:31:15.843Z,67.51
2019-03-22T02:32:19.466Z,67.78
2019-03-22T02:33:23.112Z,68.02
2019-03-22T02:34:26.757Z,68.83
2019-03-22T02:35:30.387Z,69.20
2019-03-22T02:36:34.045Z,69.38
2019-03-22T02:37:37.678Z,69.01
2019-03-22T02:38:41.305Z,68.59
2019-03-22T02:39:45.517Z,68.67
2019-03-22T02:40:49.121Z,69.01
2019-03-22T02:41:53.117Z,68.93
2019-03-22T02:42:57.254Z,69.11
2019-03-22T02:44:00.888Z,69.58
2019-03-22T02:45:10.204Z,69.96
2019-03-22T02:46:13.817Z,70.30
2019-03-22T02:47:17.425Z,70.93
2019-03-22T02:48:21.058Z,70.84
2019-03-22T02:49:24.690Z,70.68
2019-03-22T02:50:28.329Z,70.26
2019-03-22T02:51:31.877Z,69.93
2019-03-22T02:52:35.546Z,69.68
2019-03-22T02:53:39.191Z,69.41
2019-03-22T02:54:42.824Z,68.71
2019-03-22T02:55:46.479Z,68.82
2019-03-22T02:56:50.185Z,69.46
2019-03-22T02:57:53.878Z,69.61
2019-03-22T02:58:59.378Z,69.91
2019-03-22T03:00:02.971Z,69.91
2019-03-22T03:01:06.670Z,69.75
2019-03-22T03:02:10.390Z,69.54
2019-03-22T03:03:14.049Z,69.35
2019-03-22T03:04:17.676Z,69.25
2019-03-22T03:05:21.312Z,69.40
2019-03-22T03:06:24.952Z,69.27
2019-03-22T03:07:28.588Z,69.62
2019-03-22T03:08:32.259Z,70.02
2019-03-22T03:09:35.895Z,70.63
2019-03-22T03:10:39.542Z,71.11
2019-03-22T03:11:43.175Z,71.05
2019-03-22T03:12:47.017Z,70.92
2019-03-22T03:13:50.616Z,70.97
2019-03-22T03:14:54.254Z,71.05
2019-03-22T03:15:58.276Z,70.87
2019-03-22T03:17:01.897Z,70.50
2019-03-22T03:18:05.525Z,71.13
2019-03-22T03:19:09.174Z,71.27
2019-03-22T03:20:15.200Z,71.45
2019-03-22T03:21:18.827Z,71.37
2019-03-22T03:22:22.471Z,71.47
2019-03-22T03:23:26.382Z,71.37
2019-03-22T03:24:29.973Z,71.28
2019-03-22T03:25:33.610Z,71.23
2019-03-22T03:26:37.236Z,71.68
2019-03-22T03:27:40.885Z,72.12
2019-03-22T03:28:44.514Z,71.68
2019-03-22T03:29:48.181Z,71.96
2019-03-22T03:30:52.112Z,71.68
2019-03-22T03:31:56.190Z,71.72
2019-03-22T03:32:59.864Z,71.82
2019-03-22T03:34:03.897Z,71.91
2019-03-22T03:35:08.185Z,71.61
2019-03-22T03:36:11.839Z,71.57
2019-03-22T03:37:15.481Z,71.49
2019-03-22T03:38:19.500Z,71.29
2019-03-22T03:39:23.140Z,70.98
2019-03-22T03:40:26.842Z,71.23
2019-03-22T03:41:30.510Z,71.43
2019-03-22T03:42:34.151Z,71.85
2019-03-22T03:43:37.792Z,72.11
2019-03-22T03:44:41.424Z,72.35
2019-03-22T03:45:45.064Z,72.62
2019-03-22T03:46:48.729Z,72.58
2019-03-22T03:47:52.368Z,72.66
2019-03-22T03:48:55.995Z,72.88
2019-03-22T03:49:59.636Z,72.82
2019-03-22T03:51:03.270Z,72.27
2019-03-22T03:52:06.942Z,72.05
2019-03-22T03:53:10.574Z,72.02
2019-03-22T03:54:14.220Z,72.57
2019-03-22T03:55:17.836Z,72.83
2019-03-22T03:56:21.471Z,73.02
2019-03-22T03:57:25.139Z,72.68
2019-03-22T03:58:28.782Z,72.34
2019-03-22T03:59:32.419Z,72.37
2019-03-22T04:00:36.042Z,72.10
2019-03-22T04:01:39.688Z,71.83
2019-03-22T04:02:43.371Z,71.63
2019-03-22T04:03:46.993Z,71.93
2019-03-22T04:04:50.627Z,71.46
2019-03-22T04:05:54.283Z,71.80
2019-03-22T04:06:57.930Z,72.09
2019-03-22T04:08:01.656Z,72.68
2019-03-22T04:09:07.124Z,72.52
2019-03-22T04:10:10.763Z,72.61
2019-03-22T04:11:14.407Z,72.83
2019-03-22T04:12:18.041Z,72.66
2019-03-22T04:13:21.646Z,71.96
2019-03-22T04:14:25.287Z,71.46
2019-03-22T04:15:28.905Z,71.94
2019-03-22T04:16:32.606Z,72.40
2019-03-22T04:17:36.240Z,72.99
2019-03-22T04:18:39.906Z,72.97
2019-03-22T04:19:43.477Z,72.67
2019-03-22T04:20:47.115Z,72.04
2019-03-22T04:21:50.765Z,71.76
2019-03-22T04:22:54.724Z,71.00
2019-03-22T04:23:58.406Z,70.13
2019-03-22T04:25:02.124Z,69.97
2019-03-22T04:26:06.101Z,70.58
2019-03-22T04:27:09.735Z,70.92
2019-03-22T04:28:13.369Z,71.70
2019-03-22T04:29:17.021Z,72.08
2019-03-22T04:30:20.652Z,72.21
2019-03-22T04:31:25.141Z,71.83
2019-03-22T04:32:28.712Z,71.54
2019-03-22T04:33:32.342Z,71.14
2019-03-22T04:34:36.401Z,70.58
2019-03-22T04:35:40.040Z,70.00
2019-03-22T04:36:43.680Z,70.98
2019-03-22T04:37:47.315Z,70.98
2019-03-22T04:38:50.942Z,71.63
2019-03-22T04:39:54.611Z,72.25
2019-03-22T04:40:58.249Z,72.50
2019-03-22T04:42:01.880Z,72.48
2019-03-22T04:43:05.513Z,72.19
2019-03-22T04:44:09.081Z,72.19
2019-03-22T04:45:13.095Z,72.56
2019-03-22T04:46:17.420Z,73.96
2019-03-22T04:47:22.057Z,77.04
2019-03-22T04:48:28.346Z,76.41
2019-03-22T04:49:34.516Z,76.89
2019-03-22T04:50:41.152Z,75.65
2019-03-22T04:51:45.683Z,75.86
2019-03-22T04:52:49.936Z,74.95
2019-03-22T04:53:56.564Z,74.45
2019-03-22T04:55:01.895Z,75.57
2019-03-22T04:56:08.488Z,75.29
2019-03-22T04:57:14.027Z,74.93
2019-03-22T04:58:19.454Z,74.91
2019-03-22T04:59:24.177Z,73.45
2019-03-22T05:00:29.256Z,73.50
2019-03-22T05:01:34.233Z,73.62
2019-03-22T05:02:39.360Z,73.62
2019-03-22T05:03:43.783Z,73.46
2019-03-22T05:04:49.820Z,73.54
2019-03-22T05:05:56.237Z,73.78
2019-03-22T05:07:00.595Z,73.46
2019-03-22T05:08:05.335Z,73.59
2019-03-22T05:09:12.020Z,73.74
2019-03-22T05:10:16.734Z,73.82
2019-03-22T05:11:22.138Z,74.03
2019-03-22T05:12:26.706Z,74.08
2019-03-22T05:13:32.147Z,74.41
2019-03-22T05:14:37.985Z,74.80
2019-03-22T05:15:43.117Z,74.44
2019-03-22T05:16:49.099Z,74.33
2019-03-22T05:17:53.405Z,74.67
2019-03-22T05:18:59.858Z,75.15
2019-03-22T05:20:04.486Z,74.72
2019-03-22T05:21:09.939Z,74.28
2019-03-22T05:22:15.473Z,74.25
2019-03-22T05:23:22.561Z,73.92
2019-03-22T05:24:28.205Z,73.99
2019-03-22T05:25:32.831Z,74.45
2019-03-22T05:26:39.174Z,74.63
2019-03-22T05:27:45.004Z,74.42
2019-03-22T05:28:49.078Z,74.28
2019-03-22T05:29:55.114Z,74.27
2019-03-22T05:31:10.681Z,74.35
2019-03-22T05:32:15.518Z,74.18
2019-03-22T05:33:19.151Z,74.38
2019-03-22T05:34:22.811Z,74.22
2019-03-22T05:35:26.451Z,74.11
2019-03-22T05:36:30.090Z,74.07
2019-03-22T05:37:33.797Z,74.15
2019-03-22T05:38:37.436Z,73.09
2019-03-22T05:39:41.102Z,73.29
2019-03-22T05:40:44.751Z,73.32
2019-03-22T05:41:48.381Z,73.06
2019-03-22T05:42:52.015Z,72.75
2019-03-22T05:43:55.646Z,72.75
2019-03-22T05:44:59.387Z,72.29
2019-03-22T05:46:03.370Z,71.64
2019-03-22T05:47:09.734Z,71.36
2019-03-22T05:48:13.371Z,71.50
2019-03-22T05:49:17.006Z,71.90
2019-03-22T05:50:22.945Z,72.11
2019-03-22T05:51:26.577Z,72.18
2019-03-22T05:52:30.211Z,72.19
2019-03-22T05:53:33.923Z,72.33
2019-03-22T05:54:37.559Z,71.94
2019-03-22T05:55:41.240Z,71.27
2019-03-22T05:56:44.883Z,71.10
2019-03-22T05:57:48.529Z,71.26
2019-03-22T05:58:52.161Z,70.80
2019-03-22T05:59:55.794Z,70.84
2019-03-22T06:00:59.458Z,70.98
2019-03-22T06:02:03.115Z,71.96
2019-03-22T06:03:07.812Z,72.49
2019-03-22T06:04:12.918Z,72.44
2019-03-22T06:05:16.486Z,72.67
2019-03-22T06:06:21.794Z,73.19
2019-03-22T06:07:25.433Z,73.30
2019-03-22T06:08:29.066Z,73.31
2019-03-22T06:09:32.693Z,74.04
2019-03-22T06:10:36.327Z,73.92
2019-03-22T06:11:39.993Z,73.81
2019-03-22T06:12:43.931Z,73.52
2019-03-22T06:13:47.569Z,73.66
2019-03-22T06:14:51.208Z,73.84
2019-03-22T06:15:54.840Z,73.77
2019-03-22T06:16:58.630Z,73.59
2019-03-22T06:18:02.191Z,73.43
2019-03-22T06:19:06.153Z,73.09
2019-03-22T06:20:10.767Z,73.64
2019-03-22T06:21:15.735Z,75.65
2019-03-22T06:22:19.364Z,75.21
2019-03-22T06:23:22.993Z,75.20
2019-03-22T06:24:26.637Z,76.97
2019-03-22T06:25:30.302Z,76.75
2019-03-22T06:26:33.932Z,73.47
2019-03-22T06:27:37.564Z,72.40
2019-03-22T06:28:41.222Z,71.99
2019-03-22T06:29:54.192Z,72.05
2019-03-22T06:30:50.961Z,72.22
2019-03-22T06:31:54.757Z,73.68
2019-03-22T06:32:58.421Z,73.70
2019-03-22T06:34:02.132Z,71.83
2019-03-22T06:35:08.700Z,71.14
2019-03-22T06:36:12.390Z,70.68
2019-03-22T06:37:16.030Z,70.26
2019-03-22T06:38:19.653Z,70.35
2019-03-22T06:39:23.293Z,70.05
2019-03-22T06:40:26.931Z,69.74
2019-03-22T06:41:30.600Z,69.24
2019-03-22T06:42:34.234Z,68.42
2019-03-22T06:43:37.881Z,67.34
2019-03-22T06:44:41.585Z,66.83
2019-03-22T06:45:45.225Z,66.83
2019-03-22T06:46:49.097Z,66.76
2019-03-22T06:47:55.371Z,66.45
2019-03-22T06:49:01.266Z,66.67
2019-03-22T06:50:06.904Z,65.97
2019-03-22T06:51:10.548Z,65.67
2019-03-22T06:52:14.187Z,65.69
2019-03-22T06:53:17.820Z,65.64
2019-03-22T06:54:31.066Z,65.17
2019-03-22T06:55:27.814Z,65.09
2019-03-22T06:56:31.454Z,64.97
2019-03-22T06:57:35.187Z,64.82
2019-03-22T06:58:38.882Z,64.61
2019-03-22T06:59:42.600Z,64.69
2019-03-22T07:00:46.160Z,64.54
2019-03-22T07:01:49.806Z,64.19
2019-03-22T07:02:53.470Z,64.01
2019-03-22T07:03:57.134Z,63.85
2019-03-22T07:05:00.699Z,63.66
2019-03-22T07:06:04.275Z,63.13
2019-03-22T07:07:07.899Z,63.07
2019-03-22T07:08:11.575Z,63.20
2019-03-22T07:09:15.212Z,62.83
2019-03-22T07:10:18.842Z,62.47
2019-03-22T07:11:22.482Z,62.61
2019-03-22T07:12:26.188Z,62.37
2019-03-22T07:13:29.847Z,61.71
2019-03-22T07:14:33.489Z,61.13
2019-03-22T07:15:38.929Z,61.22
2019-03-22T07:16:42.535Z,60.83
2019-03-22T07:17:46.176Z,60.05
2019-03-22T07:18:49.838Z,59.65
2019-03-22T07:19:53.504Z,59.23
2019-03-22T07:20:57.212Z,58.60
2019-03-22T07:22:00.850Z,57.45
2019-03-22T07:23:04.561Z,57.45
2019-03-22T07:24:09.187Z,57.56
2019-03-22T07:25:17.687Z,56.94
2019-03-22T07:26:21.693Z,56.94
2019-03-22T07:27:25.310Z,55.97
2019-03-22T07:28:28.936Z,55.97
2019-03-22T07:29:32.587Z,55.38
2019-03-22T07:30:36.243Z,55.51
2019-03-22T07:31:39.886Z,55.51
2019-03-22T07:32:43.527Z,55.34
2019-03-22T07:33:47.180Z,55.02
2019-03-22T07:34:50.865Z,54.47
2019-03-22T07:35:54.494Z,53.98
2019-03-22T07:36:58.135Z,54.13
2019-03-22T07:38:01.862Z,53.05
2019-03-22T07:39:07.947Z,52.96
2019-03-22T07:40:12.599Z,51.79
2019-03-22T07:41:16.236Z,51.02
2019-03-22T07:42:19.899Z,50.52
2019-03-22T07:43:23.550Z,50.38
2019-03-22T07:44:27.185Z,49.40
2019-03-22T07:45:30.859Z,48.65
2019-03-22T07:46:34.536Z,48.90
2019-03-22T07:47:38.591Z,48.41
2019-03-22T07:48:42.298Z,48.63
2019-03-22T07:49:45.939Z,48.05
2019-03-22T07:50:49.606Z,47.73
2019-03-22T07:51:53.319Z,47.73
2019-03-22T07:52:57.039Z,46.97
2019-03-22T07:54:03.497Z,46.88
2019-03-22T07:55:06.812Z,46.54
2019-03-22T07:56:10.487Z,46.54
2019-03-22T07:57:14.120Z,46.77
2019-03-22T07:58:17.821Z,45.66
2019-03-22T07:59:21.468Z,45.66
2019-03-22T08:00:30.646Z,46.13
2019-03-22T08:01:37.712Z,44.71
2019-03-22T08:02:41.361Z,44.71
2019-03-22T08:03:46.385Z,45.50
2019-03-22T08:04:50.025Z,44.80
2019-03-22T08:05:53.673Z,43.80
2019-03-22T08:06:57.441Z,43.43
2019-03-22T08:08:02.309Z,42.85
2019-03-22T08:09:09.197Z,42.60
2019-03-22T08:10:12.945Z,42.08
2019-03-22T08:11:19.023Z,41.56
2019-03-22T08:12:22.699Z,41.46
2019-03-22T08:13:26.406Z,41.92
2019-03-22T08:14:30.077Z,41.61
2019-03-22T08:15:34.082Z,42.33
2019-03-22T08:16:37.720Z,42.16
2019-03-22T08:17:41.406Z,41.98
2019-03-22T08:18:45.036Z,41.87
2019-03-22T08:19:49.089Z,41.97
2019-03-22T08:20:52.922Z,41.27
2019-03-22T08:21:56.560Z,41.05
2019-03-22T08:23:00.683Z,40.91
2019-03-22T08:24:04.349Z,41.25
2019-03-22T08:25:08.079Z,40.75
2019-03-22T08:26:11.716Z,41.81
2019-03-22T08:27:15.352Z,40.73
2019-03-22T08:28:19.095Z,40.39
2019-03-22T08:29:22.750Z,39.83
2019-03-22T08:30:26.476Z,39.39
2019-03-22T08:31:30.128Z,39.34
2019-03-22T08:32:33.707Z,39.62
2019-03-22T08:33:37.382Z,39.04
2019-03-22T08:34:41.024Z,38.33
2019-03-22T08:35:44.662Z,37.92
2019-03-22T08:36:48.306Z,37.77
2019-03-22T08:37:53.015Z,37.62
2019-03-22T08:38:56.908Z,39.66
2019-03-22T08:40:00.696Z,40.66
2019-03-22T08:41:04.421Z,39.43
2019-03-22T08:42:08.063Z,37.60
2019-03-22T08:43:11.714Z,37.34
2019-03-22T08:44:15.381Z,36.87
2019-03-22T08:45:19.055Z,36.15
2019-03-22T08:46:22.598Z,36.15
2019-03-22T08:47:33.979Z,35.49
2019-03-22T08:48:31.612Z,34.72
2019-03-22T08:49:35.516Z,34.32
2019-03-22T08:50:39.304Z,33.80
2019-03-22T08:51:43.347Z,33.78
2019-03-22T08:52:47.054Z,33.09
2019-03-22T08:53:55.619Z,32.73
2019-03-22T08:54:56.099Z,32.71
2019-03-22T08:55:59.716Z,32.93
2019-03-22T08:57:03.363Z,31.89
2019-03-22T08:58:07.035Z,31.75
2019-03-22T08:59:13.378Z,31.04
2019-03-22T09:00:16.932Z,31.61
2019-03-22T09:01:20.639Z,32.90
2019-03-22T09:02:24.280Z,31.49
2019-03-22T09:03:27.921Z,30.84
2019-03-22T09:04:31.574Z,30.81
2019-03-22T09:05:35.247Z,30.60
2019-03-22T09:06:38.914Z,30.18
2019-03-22T09:07:42.523Z,30.06
2019-03-22T09:08:47.868Z,29.85
2019-03-22T09:09:51.691Z,29.54
2019-03-22T09:10:55.392Z,29.42
2019-03-22T09:11:59.004Z,29.53
2019-03-22T09:13:02.697Z,29.23
2019-03-22T09:14:06.354Z,28.35
2019-03-22T09:15:11.514Z,28.36
2019-03-22T09:16:15.201Z,29.27
2019-03-22T09:17:18.845Z,29.44
2019-03-22T09:18:22.877Z,28.17
2019-03-22T09:19:26.498Z,28.66
2019-03-22T09:20:30.159Z,26.81
2019-03-22T09:21:33.820Z,26.60
2019-03-22T09:22:37.483Z,26.96
2019-03-22T09:23:41.265Z,26.11
2019-03-22T09:24:44.861Z,27.03
2019-03-22T09:25:48.467Z,26.07
2019-03-22T09:26:52.259Z,25.62
2019-03-22T09:27:55.879Z,25.87
2019-03-22T09:28:59.508Z,26.10
2019-03-22T09:30:03.143Z,25.98
2019-03-22T09:31:10.769Z,25.67
2019-03-22T09:32:15.031Z,25.99
2019-03-22T09:33:18.658Z,25.84
2019-03-22T09:34:33.094Z,25.50
2019-03-22T09:35:27.675Z,25.81
2019-03-22T09:36:31.255Z,25.00
2019-03-22T09:37:34.881Z,24.66
2019-03-22T09:38:38.593Z,24.43
2019-03-22T09:39:42.242Z,25.17
2019-03-22T09:40:45.880Z,24.33
2019-03-22T09:41:49.521Z,25.75
2019-03-22T09:42:53.301Z,24.53
2019-03-22T09:43:57.203Z,23.91
2019-03-22T09:45:00.869Z,23.80
2019-03-22T09:46:04.468Z,23.42
2019-03-22T09:47:08.481Z,24.25
2019-03-22T09:48:12.265Z,24.09
2019-03-22T09:49:16.016Z,23.91
2019-03-22T09:50:20.126Z,23.34
2019-03-22T09:51:23.749Z,23.31
2019-03-22T09:52:27.463Z,22.34
2019-03-22T09:53:31.474Z,22.84
2019-03-22T09:54:35.102Z,21.91
2019-03-22T09:55:38.756Z,22.46
2019-03-22T09:56:47.324Z,22.63
2019-03-22T09:57:49.424Z,22.21
2019-03-22T09:58:53.360Z,21.44
2019-03-22T09:59:56.949Z,22.18
2019-03-22T10:01:00.653Z,21.84
2019-03-22T10:02:04.295Z,22.00
2019-03-22T10:03:08.016Z,22.61
2019-03-22T10:04:11.768Z,22.02
2019-03-22T10:05:15.412Z,22.24
2019-03-22T10:06:19.401Z,22.68
2019-03-22T10:07:22.997Z,22.72
2019-03-22T10:08:26.646Z,22.01
2019-03-22T10:09:30.311Z,22.13
2019-03-22T10:10:34.039Z,21.25
2019-03-22T10:11:37.611Z,22.12
2019-03-22T10:12:41.241Z,21.91
2019-03-22T10:13:48.129Z,21.54
2019-03-22T10:14:50.561Z,21.92
2019-03-22T10:15:54.163Z,21.69
2019-03-22T10:16:58.148Z,22.80
2019-03-22T10:18:02.212Z,22.77
2019-03-22T10:19:05.867Z,23.98
2019-03-22T10:20:09.730Z,23.57
2019-03-22T10:21:22.208Z,23.83
2019-03-22T10:22:18.830Z,23.73
2019-03-22T10:23:22.633Z,22.94
2019-03-22T10:24:26.468Z,23.10
2019-03-22T10:25:30.199Z,23.55
2019-03-22T10:26:33.912Z,24.58
2019-03-22T10:27:37.631Z,23.62
2019-03-22T10:28:41.330Z,23.63
2019-03-22T10:29:44.970Z,24.05
2019-03-22T10:30:48.671Z,23.58
2019-03-22T10:31:52.377Z,23.80
2019-03-22T10:32:55.990Z,24.06
2019-03-22T10:33:59.685Z,24.68
2019-03-22T10:35:03.590Z,24.25
2019-03-22T10:36:07.473Z,23.19
2019-03-22T10:37:11.184Z,23.41
2019-03-22T10:38:16.532Z,23.75
2019-03-22T10:39:20.206Z,23.13
2019-03-22T10:40:24.203Z,24.27
2019-03-22T10:41:27.916Z,23.62
2019-03-22T10:42:31.633Z,23.46
2019-03-22T10:43:35.306Z,23.22
2019-03-22T10:44:39.549Z,24.32
2019-03-22T10:45:43.260Z,23.16
2019-03-22T10:46:46.970Z,23.46
2019-03-22T10:47:50.623Z,23.17
2019-03-22T10:48:54.264Z,22.05
2019-03-22T10:49:57.922Z,21.76
2019-03-22T10:51:01.583Z,22.21
2019-03-22T10:52:05.218Z,22.73
2019-03-22T10:53:09.163Z,22.07
2019-03-22T10:54:12.992Z,21.70
2019-03-22T10:55:29.200Z,21.69
2019-03-22T10:56:24.814Z,21.60
2019-03-22T10:57:27.380Z,20.98
2019-03-22T10:58:31.027Z,20.19
2019-03-22T10:59:34.766Z,19.92
2019-03-22T11:00:38.585Z,20.08
2019-03-22T11:01:52.390Z,19.37
2019-03-22T11:02:47.601Z,19.21
2019-03-22T11:03:51.308Z,19.61
2019-03-22T11:04:55.073Z,19.32
2019-03-22T11:05:58.750Z,18.60
2019-03-22T11:07:02.389Z,18.36
2019-03-22T11:08:06.018Z,18.16
2019-03-22T11:09:09.756Z,18.47
2019-03-22T11:10:14.223Z,19.39
2019-03-22T11:11:17.876Z,18.98
2019-03-22T11:12:21.504Z,19.01
2019-03-22T11:13:25.159Z,18.68
2019-03-22T11:14:28.805Z,18.66
2019-03-22T11:15:32.441Z,18.91
2019-03-22T11:16:36.201Z,18.65
2019-03-22T11:17:39.904Z,19.26
2019-03-22T11:18:43.538Z,18.79
2019-03-22T11:19:47.182Z,18.01
2019-03-22T11:20:52.374Z,18.30
2019-03-22T11:21:56.012Z,17.75
2019-03-22T11:22:59.662Z,18.16
2019-03-22T11:24:03.299Z,17.87
2019-03-22T11:25:08.037Z,17.82
2019-03-22T11:26:11.611Z,16.82
2019-03-22T11:27:15.289Z,16.37
2019-03-22T11:28:18.925Z,16.19
2019-03-22T11:29:22.558Z,16.33
2019-03-22T11:30:26.193Z,17.12
2019-03-22T11:31:39.205Z,17.34
2019-03-22T11:32:35.323Z,17.24
2019-03-22T11:33:38.960Z,17.20
2019-03-22T11:34:42.893Z,16.48
2019-03-22T11:35:46.543Z,17.03
2019-03-22T11:36:50.189Z,17.02
2019-03-22T11:37:53.871Z,16.80
2019-03-22T11:38:57.607Z,16.70
2019-03-22T11:40:01.563Z,17.52
2019-03-22T11:41:05.202Z,17.54
2019-03-22T11:42:08.838Z,17.69
2019-03-22T11:43:12.509Z,17.50
2019-03-22T11:44:16.155Z,16.81
2019-03-22T11:45:24.627Z,16.91
2019-03-22T11:46:28.442Z,16.38
2019-03-22T11:47:32.084Z,15.86
2019-03-22T11:48:35.799Z,15.60
2019-03-22T11:49:39.448Z,15.65
2019-03-22T11:50:43.292Z,15.54
2019-03-22T11:51:47.007Z,15.86
2019-03-22T11:52:50.647Z,15.53
2019-03-22T11:53:54.293Z,16.22
2019-03-22T11:54:57.951Z,15.88
2019-03-22T11:56:01.581Z,15.68
2019-03-22T11:57:05.314Z,15.42
2019-03-22T11:58:09.295Z,15.90
2019-03-22T11:59:12.966Z,15.59
2019-03-22T12:00:24.473Z,15.50
2019-03-22T12:01:28.115Z,16.09
2019-03-22T12:02:31.753Z,15.41
2019-03-22T12:03:35.385Z,15.56
2019-03-22T12:04:39.066Z,15.34
2019-03-22T12:05:42.768Z,14.94
2019-03-22T12:06:46.403Z,15.81
2019-03-22T12:07:50.035Z,14.98
2019-03-22T12:08:54.010Z,15.54
2019-03-22T12:09:57.688Z,16.49
2019-03-22T12:11:01.324Z,16.71
2019-03-22T12:12:04.964Z,16.89
2019-03-22T12:13:08.754Z,16.17
2019-03-22T12:14:12.749Z,16.11
2019-03-22T12:15:23.395Z,16.35
2019-03-22T12:16:27.038Z,16.94
2019-03-22T12:17:30.682Z,15.93
2019-03-22T12:18:34.317Z,16.17
2019-03-22T12:19:37.964Z,15.33
2019-03-22T12:20:41.636Z,15.60
2019-03-22T12:21:45.290Z,16.37
2019-03-22T12:22:48.919Z,15.57
2019-03-22T12:23:52.559Z,15.25
2019-03-22T12:24:56.193Z,15.36
2019-03-22T12:25:59.932Z,15.62
2019-03-22T12:27:03.631Z,15.26
2019-03-22T12:28:07.379Z,16.04
2019-03-22T12:29:11.003Z,16.31
2019-03-22T12:30:16.885Z,16.10
2019-03-22T12:31:20.546Z,17.24
2019-03-22T12:32:31.953Z,17.98
2019-03-22T12:33:29.620Z,17.88
2019-03-22T12:34:33.257Z,17.95
2019-03-22T12:35:36.933Z,18.76
2019-03-22T12:36:40.570Z,18.58
2019-03-22T12:37:44.606Z,18.50
2019-03-22T12:38:48.262Z,18.80
2019-03-22T12:39:51.972Z,18.97
2019-03-22T12:40:55.609Z,18.80
2019-03-22T12:41:59.408Z,18.97
2019-03-22T12:43:03.169Z,18.98
2019-03-22T12:44:07.218Z,19.56
2019-03-22T12:45:13.773Z,20.05
2019-03-22T12:46:17.414Z,19.53
2019-03-22T12:47:21.126Z,20.38
2019-03-22T12:48:26.967Z,19.77
2019-03-22T12:49:31.950Z,19.65
2019-03-22T12:50:35.707Z,20.37
2019-03-22T12:51:39.351Z,20.17
2019-03-22T12:52:43.028Z,20.30
2019-03-22T12:53:46.661Z,19.38
2019-03-22T12:54:50.344Z,19.10
2019-03-22T12:55:53.969Z,19.19
2019-03-22T12:56:57.678Z,19.70
2019-03-22T12:58:01.399Z,19.42
2019-03-22T12:59:05.037Z,18.99
2019-03-22T13:00:11.585Z,19.16
2019-03-22T13:01:15.227Z,19.15
2019-03-22T13:02:18.965Z,18.55
2019-03-22T13:03:24.314Z,18.13
2019-03-22T13:04:28.209Z,18.50
2019-03-22T13:05:31.925Z,18.61
2019-03-22T13:06:35.597Z,18.12
2019-03-22T13:07:39.434Z,17.78
2019-03-22T13:08:43.091Z,18.36
2019-03-22T13:09:46.733Z,17.46
2019-03-22T13:10:50.408Z,19.12
2019-03-22T13:11:54.046Z,18.06
2019-03-22T13:12:57.737Z,18.53
2019-03-22T13:14:01.362Z,19.84
2019-03-22T13:15:06.002Z,19.63
2019-03-22T13:16:09.746Z,21.72
2019-03-22T13:17:13.567Z,20.71
2019-03-22T13:18:17.252Z,19.25
2019-03-22T13:19:20.923Z,18.97
2019-03-22T13:20:24.630Z,20.81
2019-03-22T13:21:28.340Z,21.72
2019-03-22T13:22:32.401Z,18.97
2019-03-22T13:23:36.039Z,19.95
2019-03-22T13:24:40.058Z,19.08
2019-03-22T13:25:43.615Z,18.62
2019-03-22T13:26:47.247Z,18.45
2019-03-22T13:27:51.434Z,19.11
2019-03-22T13:28:55.178Z,18.25
2019-03-22T13:29:58.849Z,18.94
2019-03-22T13:31:02.490Z,20.40
2019-03-22T13:32:06.121Z,19.15
2019-03-22T13:33:09.772Z,18.69
2019-03-22T13:34:13.442Z,18.73
2019-03-22T13:35:17.132Z,18.39
2019-03-22T13:36:20.767Z,18.98
2019-03-22T13:37:24.393Z,19.26
2019-03-22T13:38:28.039Z,18.39
2019-03-22T13:39:31.680Z,18.84
2019-03-22T13:40:35.365Z,18.29
2019-03-22T13:41:39.001Z,17.92
2019-03-22T13:42:42.650Z,18.38
2019-03-22T13:43:46.281Z,18.10
2019-03-22T13:44:49.997Z,17.91